PWSweather.com
Personal Weather Stations
Station Observations
IBRABANT12
Leuven, BlandenBE 3052

LeuvenBlandenBE 3052

Lat: 50.8252218, Lon: 4.709682799999996

Elevation: 193

Station Type: Davis Vantage Vue

http://www.weerstationblanden.be

Latest ConditionsUpdated 3:50:10 PM GMT+01:01 Wednesday, May 25, 2016
Currently Today's Max Today's Min Today's Average
Temperature 62.4°F16.9°C 63.8°F17.7°C 41.2°F5.1°C 49.9°F9.9°C
Dew Point 47.9°F8.8°C 49.4°F9.7°C 39.9°F4.4°C 44.2°F6.8°C
Winds 1.7 mph ESE2.7 kmh ESE 4.6 mph E7.4 kmh E - 0.8 mph 1.3 kmh
Wind Gusts 1.0 mph1.6 kmh 7.0 mph11.3 kmh - -
Humidity 59% 95% 58% 82%
Pressure 29.91 in1012.9 mb 29.98 in1015.2 mb 29.91 in1012.9 mb -
Hour Temp Dew Point Humidity Winds Wind Gusts Pressure Precip Precip Rate Daily Precip Total
03:50 PM 62.4°F16.9°C 47.9°F8.8°C 59% 1.7 mph ESE2.7 kmh ESE 1.0 mph1.6 kmh 29.91 in1012.9 mb - 0.00 in0.0 mm 0.00 in0.0 mm
03:40 PM 63.1°F17.3°C 48.9°F9.4°C 60% 1.6 mph NNE2.6 kmh NNE 3.0 mph4.8 kmh 29.91 in1012.9 mb - 0.00 in0.0 mm 0.00 in0.0 mm
03:30 PM 61.4°F16.3°C 47.8°F8.8°C 61% 2.8 mph ENE4.5 kmh ENE 3.0 mph4.8 kmh 29.91 in1012.9 mb - 0.00 in0.0 mm 0.00 in0.0 mm
03:20 PM 61.6°F16.4°C 48.0°F8.9°C 61% 2.2 mph NE3.5 kmh NE 5.0 mph8.0 kmh 29.91 in1012.9 mb - 0.00 in0.0 mm 0.00 in0.0 mm
03:10 PM 62.4°F16.9°C 48.8°F9.3°C 61% 1.1 mph SSW1.8 kmh SSW 2.0 mph3.2 kmh 29.91 in1012.9 mb - 0.00 in0.0 mm 0.00 in0.0 mm
03:00 PM 61.5°F16.4°C 47.5°F8.6°C 60% 1.9 mph SW3.1 kmh SW 3.0 mph4.8 kmh 29.91 in1012.9 mb - 0.00 in0.0 mm 0.00 in0.0 mm
02:50 PM 62.0°F16.7°C 47.5°F8.6°C 59% 2.0 mph W3.2 kmh W 2.0 mph3.2 kmh 29.91 in1012.9 mb - 0.00 in0.0 mm 0.00 in0.0 mm
02:40 PM 62.6°F17.0°C 48.5°F9.2°C 60% 0.7 mph N1.1 kmh N 1.0 mph1.6 kmh 29.91 in1012.9 mb - 0.00 in0.0 mm 0.00 in0.0 mm
02:30 PM 63.8°F17.7°C 48.7°F9.3°C 58% 2.1 mph W3.4 kmh W 4.0 mph6.4 kmh 29.92 in1013.2 mb - 0.00 in0.0 mm 0.00 in0.0 mm
02:20 PM 62.7°F17.1°C 48.6°F9.2°C 60% 1.8 mph E2.9 kmh E 2.0 mph3.2 kmh 29.92 in1013.2 mb - 0.00 in0.0 mm 0.00 in0.0 mm
02:10 PM 62.0°F16.7°C 49.3°F9.6°C 63% 1.4 mph SSW2.3 kmh SSW 2.0 mph3.2 kmh 29.92 in1013.2 mb - 0.00 in0.0 mm 0.00 in0.0 mm
02:00 PM 62.6°F17.0°C 49.4°F9.7°C 62% 2.4 mph SW3.9 kmh SW 3.0 mph4.8 kmh 29.92 in1013.2 mb - 0.00 in0.0 mm 0.00 in0.0 mm
01:50 PM 61.2°F16.2°C 48.5°F9.2°C 63% 1.5 mph S2.4 kmh S 2.0 mph3.2 kmh 29.92 in1013.2 mb - 0.00 in0.0 mm 0.00 in0.0 mm
01:40 PM 59.6°F15.3°C 48.2°F9.0°C 66% 2.4 mph SW3.9 kmh SW 4.0 mph6.4 kmh 29.92 in1013.2 mb - 0.00 in0.0 mm 0.00 in0.0 mm
01:30 PM 59.1°F15.1°C 47.7°F8.7°C 66% 2.1 mph N3.4 kmh N 7.0 mph11.3 kmh 29.92 in1013.2 mb - 0.00 in0.0 mm 0.00 in0.0 mm
01:20 PM 59.8°F15.4°C 48.4°F9.1°C 66% 4.6 mph E7.4 kmh E 7.0 mph11.3 kmh 29.92 in1013.2 mb - 0.00 in0.0 mm 0.00 in0.0 mm
01:10 PM 60.7°F15.9°C 48.4°F9.1°C 64% 2.0 mph NW3.2 kmh NW 2.0 mph3.2 kmh 29.93 in1013.5 mb - 0.00 in0.0 mm 0.00 in0.0 mm
01:00 PM 60.2°F15.7°C 48.8°F9.3°C 66% 1.2 mph SW1.9 kmh SW 2.0 mph3.2 kmh 29.93 in1013.5 mb - 0.00 in0.0 mm 0.00 in0.0 mm
12:50 PM 58.6°F14.8°C 47.7°F8.7°C 67% 1.4 mph E2.3 kmh E 2.0 mph3.2 kmh 29.93 in1013.5 mb - 0.00 in0.0 mm 0.00 in0.0 mm
12:40 PM 58.3°F14.6°C 47.8°F8.8°C 68% 4.1 mph SW6.6 kmh SW 6.0 mph9.7 kmh 29.93 in1013.5 mb - 0.00 in0.0 mm 0.00 in0.0 mm
12:30 PM 57.9°F14.4°C 47.0°F8.3°C 67% 3.6 mph N5.8 kmh N 5.0 mph8.0 kmh 29.93 in1013.5 mb - 0.00 in0.0 mm 0.00 in0.0 mm
12:20 PM 57.0°F13.9°C 47.7°F8.7°C 71% 1.5 mph SSW2.4 kmh SSW 3.0 mph4.8 kmh 29.93 in1013.5 mb - 0.00 in0.0 mm 0.00 in0.0 mm
12:10 PM 57.4°F14.1°C 47.3°F8.5°C 69% 3.9 mph NE6.3 kmh NE 5.0 mph8.0 kmh 29.94 in1013.9 mb - 0.00 in0.0 mm 0.00 in0.0 mm
12:00 PM 56.2°F13.4°C 46.9°F8.3°C 71% 0.9 mph SSW1.4 kmh SSW 1.0 mph1.6 kmh 29.94 in1013.9 mb - 0.00 in0.0 mm 0.00 in0.0 mm
11:50 AM 56.0°F13.3°C 46.4°F8.0°C 70% 0.9 mph W1.4 kmh W 2.0 mph3.2 kmh 29.94 in1013.9 mb - 0.00 in0.0 mm 0.00 in0.0 mm
11:40 AM 55.9°F13.3°C 46.6°F8.1°C 71% 0.5 mph NNE0.8 kmh NNE 1.0 mph1.6 kmh 29.94 in1013.9 mb - 0.00 in0.0 mm 0.00 in0.0 mm
11:30 AM 55.7°F13.2°C 46.1°F7.8°C 70% 0.6 mph ENE1.0 kmh ENE 1.0 mph1.6 kmh 29.94 in1013.9 mb - 0.00 in0.0 mm 0.00 in0.0 mm
11:20 AM 54.9°F12.7°C 46.0°F7.8°C 72% 0.5 mph SW0.8 kmh SW 1.0 mph1.6 kmh 29.94 in1013.9 mb - 0.00 in0.0 mm 0.00 in0.0 mm
11:10 AM 54.9°F12.7°C 46.1°F7.8°C 72% 2.6 mph SW4.2 kmh SW 3.0 mph4.8 kmh 29.94 in1013.9 mb - 0.00 in0.0 mm 0.00 in0.0 mm
11:00 AM 54.8°F12.7°C 46.3°F7.9°C 73% 0.3 mph SSW0.5 kmh SSW -- 29.94 in1013.9 mb - 0.00 in0.0 mm 0.00 in0.0 mm
10:50 AM 54.8°F12.7°C 46.0°F7.8°C 72% 2.8 mph NNE4.5 kmh NNE 3.0 mph4.8 kmh 29.94 in1013.9 mb - 0.00 in0.0 mm 0.00 in0.0 mm
10:40 AM 54.7°F12.6°C 45.8°F7.7°C 72% 1.5 mph SW2.4 kmh SW 2.0 mph3.2 kmh 29.94 in1013.9 mb - 0.00 in0.0 mm 0.00 in0.0 mm
10:30 AM 55.0°F12.8°C 46.5°F8.1°C 73% 0.9 mph SE1.4 kmh SE 1.0 mph1.6 kmh 29.94 in1013.9 mb - 0.00 in0.0 mm 0.00 in0.0 mm
10:20 AM 54.9°F12.7°C 46.7°F8.2°C 74% 0.2 mph SW0.3 kmh SW 1.0 mph1.6 kmh 29.94 in1013.9 mb - 0.00 in0.0 mm 0.00 in0.0 mm
10:10 AM 54.2°F12.3°C 45.0°F7.2°C 71% 2.2 mph SW3.5 kmh SW 4.0 mph6.4 kmh 29.94 in1013.9 mb - 0.00 in0.0 mm 0.00 in0.0 mm
10:00 AM 54.7°F12.6°C 44.7°F7.1°C 69% 1.0 mph NE1.6 kmh NE 3.0 mph4.8 kmh 29.94 in1013.9 mb - 0.00 in0.0 mm 0.00 in0.0 mm
09:50 AM 54.8°F12.7°C 44.8°F7.1°C 69% 0.5 mph NW0.8 kmh NW 2.0 mph3.2 kmh 29.94 in1013.9 mb - 0.00 in0.0 mm 0.00 in0.0 mm
09:40 AM 55.1°F12.8°C 45.5°F7.5°C 70% 0.6 mph SSE1.0 kmh SSE 1.0 mph1.6 kmh 29.94 in1013.9 mb - 0.00 in0.0 mm 0.00 in0.0 mm
09:30 AM 54.3°F12.4°C 46.5°F8.1°C 75% Calm Calm -- 29.94 in1013.9 mb - 0.00 in0.0 mm 0.00 in0.0 mm
09:20 AM 52.9°F11.6°C 45.5°F7.5°C 76% 1.4 mph SW2.3 kmh SW 2.0 mph3.2 kmh 29.94 in1013.9 mb - 0.00 in0.0 mm 0.00 in0.0 mm
09:10 AM 51.7°F10.9°C 45.4°F7.4°C 79% 2.3 mph N3.7 kmh N 3.0 mph4.8 kmh 29.95 in1014.2 mb - 0.00 in0.0 mm 0.00 in0.0 mm
09:00 AM 51.1°F10.6°C 45.8°F7.7°C 82% 1.4 mph WNW2.3 kmh WNW 2.0 mph3.2 kmh 29.95 in1014.2 mb - 0.00 in0.0 mm 0.00 in0.0 mm
08:50 AM 50.4°F10.2°C 45.4°F7.4°C 83% 1.8 mph SW2.9 kmh SW 4.0 mph6.4 kmh 29.95 in1014.2 mb - 0.00 in0.0 mm 0.00 in0.0 mm
08:40 AM 50.0°F10.0°C 46.3°F7.9°C 87% 1.6 mph SW2.6 kmh SW 3.0 mph4.8 kmh 29.95 in1014.2 mb - 0.00 in0.0 mm 0.00 in0.0 mm
08:30 AM 49.5°F9.7°C 46.7°F8.2°C 90% 0.8 mph WNW1.3 kmh WNW 2.0 mph3.2 kmh 29.95 in1014.2 mb - 0.00 in0.0 mm 0.00 in0.0 mm
08:20 AM 49.1°F9.5°C 46.6°F8.1°C 91% 0.2 mph SW0.3 kmh SW 1.0 mph1.6 kmh 29.95 in1014.2 mb - 0.00 in0.0 mm 0.00 in0.0 mm
08:10 AM 48.4°F9.1°C 45.9°F7.7°C 91% 1.1 mph SW1.8 kmh SW 1.0 mph1.6 kmh 29.95 in1014.2 mb - 0.00 in0.0 mm 0.00 in0.0 mm
08:00 AM 47.9°F8.8°C 45.7°F7.6°C 92% 0.9 mph SW1.4 kmh SW 1.0 mph1.6 kmh 29.95 in1014.2 mb - 0.00 in0.0 mm 0.00 in0.0 mm
07:50 AM 47.5°F8.6°C 45.6°F7.6°C 93% Calm Calm 1.0 mph1.6 kmh 29.96 in1014.6 mb - 0.00 in0.0 mm 0.00 in0.0 mm
07:40 AM 47.2°F8.4°C 45.3°F7.4°C 93% 0.8 mph SW1.3 kmh SW 1.0 mph1.6 kmh 29.96 in1014.6 mb - 0.00 in0.0 mm 0.00 in0.0 mm
07:30 AM 46.8°F8.2°C 45.2°F7.3°C 94% Calm Calm 1.0 mph1.6 kmh 29.95 in1014.2 mb - 0.00 in0.0 mm 0.00 in0.0 mm
07:20 AM 46.4°F8.0°C 44.8°F7.1°C 94% Calm Calm -- 29.95 in1014.2 mb - 0.00 in0.0 mm 0.00 in0.0 mm
07:10 AM 45.9°F7.7°C 44.3°F6.8°C 94% Calm Calm -- 29.95 in1014.2 mb - 0.00 in0.0 mm 0.00 in0.0 mm
07:00 AM 45.5°F7.5°C 44.2°F6.8°C 95% Calm Calm -- 29.95 in1014.2 mb - 0.00 in0.0 mm 0.00 in0.0 mm
06:50 AM 44.9°F7.2°C 43.6°F6.4°C 95% Calm Calm -- 29.95 in1014.2 mb - 0.00 in0.0 mm 0.00 in0.0 mm
06:40 AM 44.7°F7.1°C 43.4°F6.3°C 95% Calm Calm -- 29.95 in1014.2 mb - 0.00 in0.0 mm 0.00 in0.0 mm
06:30 AM 44.3°F6.8°C 43.0°F6.1°C 95% Calm Calm -- 29.95 in1014.2 mb - 0.00 in0.0 mm 0.00 in0.0 mm
06:20 AM 44.1°F6.7°C 42.7°F5.9°C 95% Calm Calm -- 29.95 in1014.2 mb - 0.00 in0.0 mm 0.00 in0.0 mm
06:10 AM 43.7°F6.5°C 42.4°F5.8°C 95% Calm Calm -- 29.95 in1014.2 mb - 0.00 in0.0 mm 0.00 in0.0 mm
06:00 AM 43.3°F6.3°C 41.9°F5.5°C 95% Calm Calm -- 29.95 in1014.2 mb - 0.00 in0.0 mm 0.00 in0.0 mm
05:50 AM 43.1°F6.2°C 41.7°F5.4°C 95% Calm Calm -- 29.95 in1014.2 mb - 0.00 in0.0 mm 0.00 in0.0 mm
05:40 AM 42.9°F6.1°C 41.6°F5.3°C 95% Calm Calm -- 29.95 in1014.2 mb - 0.00 in0.0 mm 0.00 in0.0 mm
05:30 AM 42.6°F5.9°C 41.3°F5.2°C 95% Calm Calm -- 29.95 in1014.2 mb - 0.00 in0.0 mm 0.00 in0.0 mm
05:20 AM 42.4°F5.8°C 41.1°F5.1°C 95% Calm Calm -- 29.95 in1014.2 mb - 0.00 in0.0 mm 0.00 in0.0 mm
05:10 AM 42.1°F5.6°C 40.8°F4.9°C 95% Calm Calm -- 29.95 in1014.2 mb - 0.00 in0.0 mm 0.00 in0.0 mm
05:00 AM 41.9°F5.5°C 40.6°F4.8°C 95% Calm Calm -- 29.95 in1014.2 mb - 0.00 in0.0 mm 0.00 in0.0 mm
04:50 AM 41.6°F5.3°C 40.2°F4.6°C 95% Calm Calm -- 29.95 in1014.2 mb - 0.00 in0.0 mm 0.00 in0.0 mm
04:40 AM 41.3°F5.2°C 40.0°F4.4°C 95% Calm Calm -- 29.95 in1014.2 mb - 0.00 in0.0 mm 0.00 in0.0 mm
04:30 AM 41.2°F5.1°C 39.9°F4.4°C 95% Calm Calm -- 29.95 in1014.2 mb - 0.00 in0.0 mm 0.00 in0.0 mm
04:20 AM 41.4°F5.2°C 40.0°F4.4°C 95% Calm Calm -- 29.95 in1014.2 mb - 0.00 in0.0 mm 0.00 in0.0 mm
04:10 AM 41.5°F5.3°C 40.2°F4.6°C 95% Calm Calm -- 29.95 in1014.2 mb - 0.00 in0.0 mm 0.00 in0.0 mm
04:00 AM 41.4°F5.2°C 40.1°F4.5°C 95% Calm Calm -- 29.95 in1014.2 mb - 0.00 in0.0 mm 0.00 in0.0 mm
03:50 AM 41.6°F5.3°C 40.2°F4.6°C 95% Calm Calm -- 29.95 in1014.2 mb - 0.00 in0.0 mm 0.00 in0.0 mm
03:40 AM 41.6°F5.3°C 40.3°F4.6°C 95% Calm Calm -- 29.95 in1014.2 mb - 0.00 in0.0 mm 0.00 in0.0 mm
03:30 AM 41.7°F5.4°C 40.4°F4.7°C 95% Calm Calm -- 29.95 in1014.2 mb - 0.00 in0.0 mm 0.00 in0.0 mm
03:20 AM 41.8°F5.4°C 40.5°F4.7°C 95% Calm Calm -- 29.95 in1014.2 mb - 0.00 in0.0 mm 0.00 in0.0 mm
03:10 AM 42.0°F5.6°C 40.6°F4.8°C 95% Calm Calm -- 29.95 in1014.2 mb - 0.00 in0.0 mm 0.00 in0.0 mm
03:00 AM 42.0°F5.6°C 40.7°F4.8°C 95% Calm Calm 1.0 mph1.6 kmh 29.95 in1014.2 mb - 0.00 in0.0 mm 0.00 in0.0 mm
02:50 AM 42.0°F5.6°C 40.6°F4.8°C 95% Calm Calm -- 29.96 in1014.6 mb - 0.00 in0.0 mm 0.00 in0.0 mm
02:40 AM 41.9°F5.5°C 40.6°F4.8°C 95% Calm Calm -- 29.95 in1014.2 mb - 0.00 in0.0 mm 0.00 in0.0 mm
02:30 AM 41.8°F5.4°C 40.5°F4.7°C 95% Calm Calm -- 29.96 in1014.6 mb - 0.00 in0.0 mm 0.00 in0.0 mm
02:20 AM 41.8°F5.4°C 40.5°F4.7°C 95% Calm Calm -- 29.96 in1014.6 mb - 0.00 in0.0 mm 0.00 in0.0 mm
02:10 AM 41.7°F5.4°C 40.1°F4.5°C 94% Calm Calm -- 29.96 in1014.6 mb - 0.00 in0.0 mm 0.00 in0.0 mm
02:00 AM 41.6°F5.3°C 40.0°F4.4°C 94% Calm Calm -- 29.96 in1014.6 mb - 0.00 in0.0 mm 0.00 in0.0 mm
01:50 AM 41.7°F5.4°C 40.1°F4.5°C 94% Calm Calm -- 29.96 in1014.6 mb - 0.00 in0.0 mm 0.00 in0.0 mm
01:40 AM 41.8°F5.4°C 40.2°F4.6°C 94% Calm Calm -- 29.96 in1014.6 mb - 0.00 in0.0 mm 0.00 in0.0 mm
01:30 AM 41.9°F5.5°C 40.3°F4.6°C 94% Calm Calm -- 29.97 in1014.9 mb - 0.00 in0.0 mm 0.00 in0.0 mm
01:20 AM 42.0°F5.6°C 40.4°F4.7°C 94% Calm Calm -- 29.97 in1014.9 mb - 0.00 in0.0 mm 0.00 in0.0 mm
01:10 AM 42.2°F5.7°C 40.6°F4.8°C 94% Calm Calm -- 29.97 in1014.9 mb - 0.00 in0.0 mm 0.00 in0.0 mm
01:00 AM 42.5°F5.8°C 40.9°F4.9°C 94% Calm Calm -- 29.97 in1014.9 mb - 0.00 in0.0 mm 0.00 in0.0 mm
12:50 AM 42.7°F5.9°C 40.8°F4.9°C 93% Calm Calm -- 29.97 in1014.9 mb - 0.00 in0.0 mm 0.00 in0.0 mm
12:40 AM 42.8°F6.0°C 40.9°F4.9°C 93% Calm Calm -- 29.97 in1014.9 mb - 0.00 in0.0 mm 0.00 in0.0 mm
12:30 AM 43.0°F6.1°C 41.2°F5.1°C 93% Calm Calm -- 29.98 in1015.2 mb - 0.00 in0.0 mm 0.00 in0.0 mm
12:20 AM 43.5°F6.4°C 41.6°F5.3°C 93% Calm Calm -- 29.98 in1015.2 mb - 0.00 in0.0 mm 0.00 in0.0 mm
12:10 AM 43.8°F6.6°C 41.7°F5.4°C 92% Calm Calm -- 29.98 in1015.2 mb - 0.00 in0.0 mm 0.00 in0.0 mm
12:00 AM 44.2°F6.8°C 42.0°F5.6°C 92% Calm Calm -- 29.98 in1015.2 mb - 0.00 in0.0 mm 0.00 in0.0 mm